Camano Island, WA

11:22 PM PDT on August 28, 2014 (GMT -0700)
Cavalero Estates | Change Station
CLOSE
Current Station
Personal Weather Station
Location: Camano Island, WA
Elevation: 90 ft
Nearby Weather Stations

Elev 90 ft 48.17 °N, 122.48 °W | Updated 3 seconds ago

Partly Cloudy
Partly Cloudy
60.2 °F
Feels Like 60.2 °F
N
0.0
Wind Variable Wind from WNW
Gusts 1.0 mph

Today
High -- | Low -- °F
--% Chance of Precip.
Yesterday
High -- | Low -- °F
Precip. -- in
6:22 AM 7:58 PM
Waxing Crescent, 12% visible
Pressure 30.04 in
Visibility 10.0 miles
Clouds Few 3000 ft
Mostly Cloudy 6000 ft
Mostly Cloudy 8000 ft
Dew Point 55 °F
Humidity 84%
Rainfall 0.00 in
Snow Depth Not available.
UV 0 out of 12
Pollen 2.50 out of 12
PM2.5 Good
Flu Activity Not available.
METAR KNUW 290556Z 20003KT 10SM FEW030 BKN060 BKN080 15/11 A3003 RMK AO2 SLP171 T01500111 10222 20150 58006 $

More Conditions Fewer Conditions

Pressure 30.04 in
Visibility 10.0 miles
Clouds Few 3000 ft
Mostly Cloudy 6000 ft
Mostly Cloudy 8000 ft
Dew Point 55 °F
Humidity 84%
Rainfall 0.00 in
Snow Depth Not available.
UV 0 out of 12
Pollen 2.50 out of 12
PM2.5 Good
Flu Activity Not available.
METAR KNUW 290556Z 20003KT 10SM FEW030 BKN060 BKN080 15/11 A3003 RMK AO2 SLP171 T01500111 10222 20150 58006 $

More Conditions Fewer Conditions

10-Day Weather Forecast

Almanac

Astronomy

Aug. 28, 2014 Rise Set
Actual Time 6:22 AM PDT 7:58 PM PDT
Civil Twilight 5:49 AM PDT 8:31 PM PDT
Nautical Twilight 5:09 AM PDT 9:11 PM PDT
Astronomical Twilight 4:26 AM PDT 9:54 PM PDT
Moon 9:37 AM PDT (8/28) 9:07 PM PDT (8/28)
Length of Visible Light 14h 41m
Length of Day
13h 36m
Tomorrow will be 3m 21s shorter.
Waxing Crescent, 12% of the Moon is Illuminated
Aug 29
Waxing Crescent
Sep 2
First Quarter
Sep 8
Full
Sep 15
Last Quarter
Sep 24
New

Community

WunderPhotos

Upload Photos

1,748,197 photos uploaded!

Nearby

Air Quality

  Air Quality AQ Index Pollutant
Yesterday Good
PM2.5
Current Good
PM2.5
Thursday Good
PM2.5
Friday Good
PM2.5
Saturday Good
PM2.5

Snow Depth

Station Depth Elevation
Dungeness 0 in 4100 ft
Mount Crag 0 in 4050 ft
Elbow Lake 0 in 3200 ft
Alpine Meadows 0 in 3500 ft
Mf Nooksack 0 in 4980 ft

Earthquake Activity

City Distance Mag. Time & Date
No recent earthquake activity has been reported nearby.
Minimum magnitude displayed is 2.5.

Coastal Water Temperatures

Place Temperature
Port Townsend, WA 53.1 °F
Friday Harbor, WA 53.1 °F
Port Angeles, WA 54.0 °F

Nearby Weather Stations